createdAt,value
2019-02-26T00:01:16.424Z,29.27
2019-02-26T00:03:41.292Z,25.87
2019-02-26T00:06:08.718Z,24.47
2019-02-26T00:08:36.178Z,28.27
2019-02-26T00:11:04.426Z,25.13
2019-02-26T00:13:31.954Z,26.23
2019-02-26T00:16:03.246Z,25.83
2019-02-26T00:18:25.877Z,22.00
2019-02-26T00:20:54.140Z,28.53
2019-02-26T00:23:21.622Z,25.53
2019-02-26T00:25:48.117Z,29.90
2019-02-26T00:28:17.527Z,29.87
2019-02-26T00:30:42.945Z,27.90
2019-02-26T00:33:10.371Z,25.30
2019-02-26T00:35:39.378Z,26.97
2019-02-26T00:38:05.213Z,28.50
2019-02-26T00:40:34.395Z,29.50
2019-02-26T00:43:02.049Z,28.30
2019-02-26T00:45:29.490Z,27.20
2019-02-26T00:47:54.939Z,29.00
2019-02-26T00:50:22.337Z,24.53
2019-02-26T00:52:49.751Z,24.77
2019-02-26T00:55:17.201Z,26.37
2019-02-26T00:57:44.612Z,24.43
2019-02-26T01:00:14.698Z,28.50
2019-02-26T01:02:42.101Z,28.10
2019-02-26T01:05:11.305Z,23.33
2019-02-26T01:07:36.941Z,21.17
2019-02-26T01:10:04.392Z,25.07
2019-02-26T01:12:32.947Z,24.00
2019-02-26T01:14:59.268Z,25.10
2019-02-26T01:17:26.694Z,27.17
2019-02-26T01:19:54.437Z,30.37
2019-02-26T01:22:21.525Z,24.63
2019-02-26T01:24:49.779Z,36.23
2019-02-26T01:27:16.395Z,37.83
2019-02-26T01:29:44.588Z,24.40
2019-02-26T01:32:13.282Z,25.60
2019-02-26T01:34:40.401Z,27.67
2019-02-26T01:37:07.698Z,30.13
2019-02-26T01:39:35.634Z,23.83
2019-02-26T01:42:00.967Z,32.60
2019-02-26T01:44:32.296Z,24.67
2019-02-26T01:46:57.803Z,29.30
2019-02-26T01:49:23.757Z,29.20
2019-02-26T01:51:51.861Z,25.57
2019-02-26T01:54:18.081Z,27.47
2019-02-26T01:56:45.484Z,25.97
2019-02-26T01:59:12.935Z,25.53
2019-02-26T02:01:44.105Z,28.90
2019-02-26T02:04:08.795Z,28.00
2019-02-26T02:06:36.904Z,29.57
2019-02-26T02:09:02.622Z,31.50
2019-02-26T02:11:31.191Z,35.93
2019-02-26T02:13:57.468Z,31.67
2019-02-26T02:16:26.829Z,31.17
2019-02-26T02:18:53.559Z,29.73
2019-02-26T02:21:19.751Z,33.63
2019-02-26T02:23:49.203Z,34.70
2019-02-26T02:26:15.654Z,41.67
2019-02-26T02:28:42.037Z,35.50
2019-02-26T02:31:09.478Z,30.97
2019-02-26T02:33:37.537Z,34.17
2019-02-26T02:36:04.321Z,30.10
2019-02-26T02:38:36.500Z,34.00
2019-02-26T02:40:59.191Z,32.73
2019-02-26T02:43:26.616Z,30.30
2019-02-26T02:45:56.404Z,30.87
2019-02-26T02:48:21.454Z,31.40
2019-02-26T02:50:48.864Z,30.00
2019-02-26T02:53:18.605Z,30.47
2019-02-26T02:55:46.405Z,34.20
2019-02-26T02:58:13.063Z,37.60
2019-02-26T03:00:38.578Z,29.60
2019-02-26T03:03:05.999Z,37.40
2019-02-26T03:05:35.114Z,30.93
2019-02-26T03:08:00.863Z,34.53
2019-02-26T03:10:30.774Z,31.83
2019-02-26T03:12:57.764Z,29.93
2019-02-26T03:15:24.606Z,31.33
2019-02-26T03:17:50.568Z,33.20
2019-02-26T03:20:18.000Z,32.87
2019-02-26T03:22:48.823Z,32.50
2019-02-26T03:25:17.672Z,33.17
2019-02-26T03:27:43.196Z,35.37
2019-02-26T03:30:26.417Z,29.07
2019-02-26T03:32:45.971Z,35.30
2019-02-26T03:35:13.334Z,34.30
2019-02-26T03:37:38.596Z,28.47
2019-02-26T03:40:08.150Z,26.80
2019-02-26T03:42:35.874Z,25.93
2019-02-26T03:45:02.965Z,28.57
2019-02-26T03:47:28.362Z,25.83
2019-02-26T03:49:55.793Z,26.10
2019-02-26T03:52:23.234Z,23.83
2019-02-26T03:54:50.785Z,21.77
2019-02-26T03:57:20.086Z,26.83
2019-02-26T03:59:45.490Z,25.83
2019-02-26T04:02:15.315Z,24.80
2019-02-26T04:04:40.348Z,19.40
2019-02-26T04:07:10.510Z,25.93
2019-02-26T04:09:39.111Z,23.47
2019-02-26T04:12:02.622Z,27.77
2019-02-26T04:14:30.710Z,31.37
2019-02-26T04:16:58.673Z,28.57
2019-02-26T04:19:26.786Z,26.70
2019-02-26T04:22:26.489Z,24.20
2019-02-26T04:24:55.040Z,26.20
2019-02-26T04:27:41.216Z,23.97
2019-02-26T04:30:21.135Z,27.90
2019-02-26T04:33:09.103Z,21.50
2019-02-26T04:35:34.493Z,25.90
2019-02-26T04:38:10.913Z,20.43
2019-02-26T04:40:40.532Z,23.13
2019-02-26T04:43:12.914Z,22.77
2019-02-26T04:45:38.899Z,23.13
2019-02-26T04:48:06.341Z,23.17
2019-02-26T04:50:35.729Z,19.53
2019-02-26T04:53:04.461Z,20.07
2019-02-26T04:55:29.734Z,20.73
2019-02-26T04:57:56.103Z,21.30
2019-02-26T05:00:26.183Z,20.57
2019-02-26T05:02:50.945Z,19.43
2019-02-26T05:05:18.367Z,18.73
2019-02-26T05:07:47.067Z,19.07
2019-02-26T05:10:13.234Z,23.10
2019-02-26T05:12:40.676Z,18.80
2019-02-26T05:15:11.504Z,21.50
2019-02-26T05:17:35.529Z,21.07
2019-02-26T05:20:04.259Z,17.57
2019-02-26T05:22:33.121Z,21.93
2019-02-26T05:24:57.833Z,18.77
2019-02-26T05:27:25.244Z,25.90
2019-02-26T05:29:54.774Z,21.70
2019-02-26T05:32:21.835Z,28.53
2019-02-26T05:34:50.657Z,26.20
2019-02-26T05:37:14.967Z,26.33
2019-02-26T05:39:43.176Z,22.50
2019-02-26T05:42:29.486Z,20.43
2019-02-26T05:44:59.937Z,25.40
2019-02-26T05:47:26.591Z,34.57
2019-02-26T05:49:51.773Z,25.80
2019-02-26T05:52:21.425Z,21.30
2019-02-26T05:54:46.615Z,23.23
2019-02-26T05:57:25.948Z,19.53
2019-02-26T05:59:42.075Z,20.33
2019-02-26T06:02:10.693Z,26.20
2019-02-26T06:04:38.399Z,27.90
2019-02-26T06:07:04.750Z,32.93
2019-02-26T06:09:33.854Z,21.90
2019-02-26T06:11:58.613Z,31.33
2019-02-26T06:14:27.652Z,35.67
2019-02-26T06:16:55.748Z,35.00
2019-02-26T06:19:20.887Z,29.00
2019-02-26T06:21:49.751Z,28.37
2019-02-26T06:24:15.722Z,36.07
2019-02-26T06:26:45.376Z,34.37
2019-02-26T06:29:10.591Z,25.70
2019-02-26T06:31:40.103Z,23.47
2019-02-26T06:34:06.461Z,25.90
2019-02-26T06:36:32.871Z,25.67
2019-02-26T06:39:01.554Z,25.97
2019-02-26T06:41:27.746Z,30.83
2019-02-26T06:43:55.246Z,33.07
2019-02-26T06:46:22.583Z,26.60
2019-02-26T06:48:50.021Z,28.03
2019-02-26T06:51:19.000Z,26.33
2019-02-26T06:53:47.104Z,25.53
2019-02-26T06:56:12.308Z,27.13
2019-02-26T06:58:41.144Z,25.73
2019-02-26T07:01:07.660Z,22.97
2019-02-26T07:03:34.573Z,29.83
2019-02-26T07:06:04.762Z,33.53
2019-02-26T07:08:31.031Z,24.37
2019-02-26T07:10:56.853Z,31.53
2019-02-26T07:13:24.273Z,38.27
2019-02-26T07:15:51.729Z,35.93
2019-02-26T07:18:19.731Z,31.33
2019-02-26T07:20:49.613Z,34.47
2019-02-26T07:23:15.535Z,28.27
2019-02-26T07:25:43.818Z,34.70
2019-02-26T07:28:08.871Z,29.13
2019-02-26T07:30:37.566Z,32.60
2019-02-26T07:33:05.344Z,30.33
2019-02-26T07:35:32.723Z,27.73
2019-02-26T07:37:59.499Z,29.97
2019-02-26T07:40:27.795Z,25.43
2019-02-26T07:42:53.493Z,27.33
2019-02-26T07:45:22.899Z,31.77
2019-02-26T07:47:49.151Z,37.63
2019-02-26T07:50:17.337Z,76.53
2019-02-26T07:52:43.201Z,30.67
2019-02-26T07:55:12.167Z,27.63
2019-02-26T07:57:38.048Z,29.67
2019-02-26T08:00:08.304Z,27.30
2019-02-26T08:02:37.296Z,25.00
2019-02-26T08:05:03.248Z,27.60
2019-02-26T08:07:30.827Z,23.27
2019-02-26T08:09:58.112Z,26.40
2019-02-26T08:12:25.531Z,31.57
2019-02-26T08:14:52.949Z,27.33
2019-02-26T08:17:20.400Z,24.03
2019-02-26T08:19:49.369Z,21.53
2019-02-26T08:22:15.259Z,20.57
2019-02-26T08:24:42.687Z,20.97
2019-02-26T08:27:11.585Z,24.80
2019-02-26T08:29:37.512Z,31.43
2019-02-26T08:32:04.919Z,25.37
2019-02-26T08:34:32.346Z,24.07
2019-02-26T08:36:59.742Z,22.77
2019-02-26T08:39:27.177Z,25.67
2019-02-26T08:41:57.107Z,22.17
2019-02-26T08:44:24.545Z,26.67
2019-02-26T08:46:51.949Z,20.30
2019-02-26T08:49:20.810Z,28.03
2019-02-26T08:51:46.807Z,21.17
2019-02-26T08:54:20.509Z,21.43
2019-02-26T08:56:41.675Z,26.60
2019-02-26T08:59:09.065Z,19.97
2019-02-26T09:01:36.469Z,19.87
2019-02-26T09:04:03.908Z,18.63
2019-02-26T09:06:31.322Z,19.37
2019-02-26T09:09:00.177Z,19.10
2019-02-26T09:11:28.310Z,20.00
2019-02-26T09:13:53.566Z,18.00
2019-02-26T09:16:22.304Z,20.57
2019-02-26T09:18:48.429Z,19.67
2019-02-26T09:21:17.865Z,16.63
2019-02-26T09:23:47.457Z,26.93
2019-02-26T09:26:10.730Z,17.37
2019-02-26T09:28:38.153Z,32.20
2019-02-26T09:31:06.798Z,18.00
2019-02-26T09:33:34.995Z,17.10
2019-02-26T09:36:00.435Z,19.33
2019-02-26T09:38:27.878Z,15.90
2019-02-26T09:40:56.992Z,14.43
2019-02-26T09:43:24.434Z,15.47
2019-02-26T09:45:50.593Z,15.10
2019-02-26T09:48:19.316Z,16.80
2019-02-26T09:50:46.427Z,13.57
2019-02-26T09:53:12.388Z,13.20
2019-02-26T09:55:39.816Z,14.30
2019-02-26T09:58:07.233Z,11.70
2019-02-26T10:00:34.655Z,13.80
2019-02-26T10:03:03.039Z,16.57
2019-02-26T10:05:29.507Z,16.50
2019-02-26T10:07:59.462Z,13.70
2019-02-26T10:10:27.526Z,13.93
2019-02-26T10:12:53.769Z,13.43
2019-02-26T10:15:19.165Z,14.30
2019-02-26T10:17:46.574Z,12.03
2019-02-26T10:20:20.735Z,11.07
2019-02-26T10:22:47.177Z,10.67
2019-02-26T10:25:15.335Z,11.77
2019-02-26T10:27:43.124Z,10.87
2019-02-26T10:30:11.234Z,11.00
2019-02-26T10:32:36.877Z,13.57
2019-02-26T10:35:04.609Z,8.37
2019-02-26T10:37:33.683Z,7.07
2019-02-26T10:39:59.121Z,6.90
2019-02-26T10:42:26.545Z,7.87
2019-02-26T10:44:53.937Z,7.77
2019-02-26T10:47:22.822Z,9.97
2019-02-26T10:49:49.783Z,7.67
2019-02-26T10:52:17.516Z,11.87
2019-02-26T10:54:46.459Z,9.50
2019-02-26T10:57:14.104Z,11.47
2019-02-26T10:59:38.408Z,8.00
2019-02-26T11:02:05.839Z,7.00
2019-02-26T11:04:35.591Z,7.57
2019-02-26T11:07:04.161Z,8.83
2019-02-26T11:09:29.885Z,9.03
2019-02-26T11:11:57.844Z,12.30
2019-02-26T11:14:22.931Z,10.60
2019-02-26T11:16:50.330Z,12.23
2019-02-26T11:19:17.748Z,8.40
2019-02-26T11:21:47.328Z,6.50
2019-02-26T11:24:12.558Z,8.67
2019-02-26T11:26:40.962Z,8.77
2019-02-26T11:29:07.410Z,14.77
2019-02-26T11:31:36.570Z,8.13
2019-02-26T11:34:04.048Z,11.37
2019-02-26T11:36:31.288Z,9.03
2019-02-26T11:38:59.018Z,10.80
2019-02-26T11:41:26.361Z,6.93
2019-02-26T11:43:51.941Z,6.13
2019-02-26T11:46:20.095Z,7.70
2019-02-26T11:48:47.605Z,9.27
2019-02-26T11:51:16.874Z,5.80
2019-02-26T11:53:43.483Z,8.63
2019-02-26T11:56:09.040Z,6.87
2019-02-26T11:58:36.444Z,5.50
2019-02-26T12:01:03.868Z,5.17
2019-02-26T12:03:34.133Z,26.63
2019-02-26T12:06:01.238Z,7.60
2019-02-26T12:08:26.120Z,8.17
2019-02-26T12:10:57.645Z,14.37
2019-02-26T12:13:22.345Z,7.50
2019-02-26T12:15:48.351Z,8.07
2019-02-26T12:18:17.912Z,9.50
2019-02-26T12:20:45.986Z,12.20
2019-02-26T12:23:12.967Z,7.33
2019-02-26T12:25:38.508Z,6.93
2019-02-26T12:28:08.237Z,6.43
2019-02-26T12:30:35.024Z,8.47
2019-02-26T12:33:00.870Z,4.70
2019-02-26T12:35:29.699Z,6.87
2019-02-26T12:37:59.367Z,7.50
2019-02-26T12:40:25.483Z,13.17
2019-02-26T12:42:51.553Z,7.17
2019-02-26T12:45:20.931Z,28.90
2019-02-26T12:47:52.107Z,4.53
2019-02-26T12:50:18.571Z,8.20
2019-02-26T12:52:47.554Z,4.37
2019-02-26T12:55:13.557Z,4.87
2019-02-26T12:57:43.286Z,5.83
2019-02-26T13:00:16.595Z,6.37
2019-02-26T13:02:43.795Z,10.60
2019-02-26T13:05:13.462Z,4.43
2019-02-26T13:07:38.180Z,24.60
2019-02-26T13:10:05.596Z,5.80
2019-02-26T13:12:32.986Z,4.07
2019-02-26T13:15:04.769Z,5.43
2019-02-26T13:17:31.546Z,6.90
2019-02-26T13:19:58.950Z,4.60
2019-02-26T13:22:22.604Z,3.90
2019-02-26T13:24:50.053Z,5.60
2019-02-26T13:27:17.809Z,6.67
2019-02-26T13:29:53.928Z,5.03
2019-02-26T13:32:13.673Z,3.83
2019-02-26T13:34:39.670Z,4.20
2019-02-26T13:37:07.093Z,6.13
2019-02-26T13:39:38.561Z,5.50
2019-02-26T13:42:05.695Z,5.47
2019-02-26T13:44:29.346Z,6.10
2019-02-26T13:46:56.738Z,4.00
2019-02-26T13:49:24.165Z,10.47
2019-02-26T13:51:51.564Z,7.77
2019-02-26T13:54:19.004Z,4.17
2019-02-26T13:56:46.409Z,11.07
2019-02-26T13:59:13.810Z,6.37
2019-02-26T14:01:41.246Z,5.53
2019-02-26T14:04:08.633Z,5.83
2019-02-26T14:06:36.066Z,6.27
2019-02-26T14:09:03.469Z,5.83
2019-02-26T14:11:30.913Z,6.17
2019-02-26T14:13:58.291Z,7.83
2019-02-26T14:16:25.720Z,4.77
2019-02-26T14:18:53.119Z,6.03
2019-02-26T14:21:20.522Z,3.93
2019-02-26T14:23:47.940Z,4.63
2019-02-26T14:26:15.344Z,7.87
2019-02-26T14:28:42.771Z,7.83
2019-02-26T14:31:10.187Z,5.33
2019-02-26T14:33:37.605Z,6.07
2019-02-26T14:36:05.014Z,8.50
2019-02-26T14:38:33.713Z,9.27
2019-02-26T14:41:02.342Z,6.00
2019-02-26T14:43:28.545Z,11.73
2019-02-26T14:45:55.977Z,7.07
2019-02-26T14:48:23.401Z,7.57
2019-02-26T14:50:50.822Z,11.33
2019-02-26T14:53:18.211Z,6.17
2019-02-26T14:55:45.630Z,8.17
2019-02-26T14:58:13.026Z,7.47
2019-02-26T15:00:40.425Z,11.87
2019-02-26T15:03:07.850Z,7.17
2019-02-26T15:05:35.275Z,8.67
2019-02-26T15:08:02.716Z,7.40
2019-02-26T15:10:30.126Z,8.80
2019-02-26T15:12:57.540Z,11.93
2019-02-26T15:15:24.932Z,7.73
2019-02-26T15:17:52.368Z,7.27
2019-02-26T15:20:22.737Z,8.07
2019-02-26T15:22:50.190Z,12.60
2019-02-26T15:25:23.146Z,6.63
2019-02-26T15:27:50.566Z,10.17
2019-02-26T15:30:18.015Z,7.57
2019-02-26T15:32:45.422Z,7.43
2019-02-26T15:35:12.840Z,7.63
2019-02-26T15:37:40.245Z,7.60
2019-02-26T15:40:10.369Z,5.07
2019-02-26T15:42:37.737Z,7.60
2019-02-26T15:45:05.156Z,4.67
2019-02-26T15:47:32.712Z,6.40
2019-02-26T15:50:00.145Z,6.90
2019-02-26T15:52:27.488Z,5.83
2019-02-26T15:54:57.515Z,4.70
2019-02-26T15:57:22.288Z,3.70
2019-02-26T15:59:51.279Z,9.33
2019-02-26T16:02:17.172Z,4.83
2019-02-26T16:04:44.565Z,7.97
2019-02-26T16:07:11.971Z,9.20
2019-02-26T16:09:39.400Z,8.53
2019-02-26T16:12:06.809Z,5.77
2019-02-26T16:14:34.235Z,6.33
2019-02-26T16:17:01.649Z,5.27
2019-02-26T16:19:29.081Z,6.30
2019-02-26T16:21:56.492Z,6.27
2019-02-26T16:24:23.908Z,8.93
2019-02-26T16:26:51.362Z,9.90
2019-02-26T16:29:18.826Z,7.30
2019-02-26T16:31:46.228Z,8.57
2019-02-26T16:34:13.643Z,5.57
2019-02-26T16:36:41.110Z,15.23
2019-02-26T16:39:08.521Z,17.63
2019-02-26T16:41:38.299Z,26.37
2019-02-26T16:44:03.353Z,11.03
2019-02-26T16:46:30.810Z,11.77
2019-02-26T16:48:58.217Z,7.20
2019-02-26T16:51:25.618Z,11.37
2019-02-26T16:53:53.047Z,13.10
2019-02-26T16:56:21.991Z,15.30
2019-02-26T16:58:47.892Z,11.57
2019-02-26T17:01:15.378Z,15.67
2019-02-26T17:03:42.826Z,20.83
2019-02-26T17:06:10.247Z,15.87
2019-02-26T17:08:37.648Z,12.90
2019-02-26T17:11:05.085Z,8.30
2019-02-26T17:13:32.510Z,11.37
2019-02-26T17:16:00.222Z,12.70
2019-02-26T17:18:27.364Z,16.67
2019-02-26T17:20:56.735Z,13.27
2019-02-26T17:23:22.182Z,16.10
2019-02-26T17:25:49.716Z,14.43
2019-02-26T17:28:17.107Z,18.30
2019-02-26T17:30:44.541Z,17.17
2019-02-26T17:33:14.471Z,15.40
2019-02-26T17:35:39.393Z,15.57
2019-02-26T17:38:06.809Z,18.53
2019-02-26T17:40:36.618Z,20.20
2019-02-26T17:43:01.661Z,18.13
2019-02-26T17:45:32.209Z,11.97
2019-02-26T17:47:59.702Z,25.70
2019-02-26T17:50:27.050Z,13.07
2019-02-26T17:52:54.676Z,13.93
2019-02-26T17:55:21.895Z,13.93
2019-02-26T17:57:49.321Z,15.70
2019-02-26T18:00:16.758Z,10.50
2019-02-26T18:02:44.189Z,13.73
2019-02-26T18:05:11.598Z,10.90
2019-02-26T18:07:39.035Z,12.90
2019-02-26T18:10:12.556Z,12.27
2019-02-26T18:12:36.292Z,14.20
2019-02-26T18:15:03.714Z,12.63
2019-02-26T18:17:31.138Z,11.07
2019-02-26T18:19:58.534Z,13.03
2019-02-26T18:22:25.959Z,14.63
2019-02-26T18:24:53.373Z,13.80
2019-02-26T18:27:20.826Z,14.23
2019-02-26T18:29:48.247Z,11.93
2019-02-26T18:32:15.650Z,13.73
2019-02-26T18:34:43.088Z,15.57
2019-02-26T18:37:10.521Z,17.57
2019-02-26T18:39:37.947Z,14.17
2019-02-26T18:42:07.565Z,17.20
2019-02-26T18:44:32.787Z,17.07
2019-02-26T18:47:00.217Z,19.10
2019-02-26T18:49:27.660Z,16.87
2019-02-26T18:51:55.077Z,15.77
2019-02-26T18:54:22.505Z,15.80
2019-02-26T18:56:49.908Z,20.97
2019-02-26T18:59:21.451Z,17.93
2019-02-26T19:01:44.853Z,23.93
2019-02-26T19:04:13.945Z,20.17
2019-02-26T19:06:39.697Z,25.33
2019-02-26T19:09:07.186Z,24.07
2019-02-26T19:11:34.639Z,22.83
2019-02-26T19:14:02.243Z,21.20
2019-02-26T19:16:30.078Z,21.27
2019-02-26T19:18:57.514Z,23.17
2019-02-26T19:21:24.966Z,24.27
2019-02-26T19:23:52.371Z,25.13
2019-02-26T19:26:19.845Z,22.87
2019-02-26T19:28:47.248Z,25.47
2019-02-26T19:31:14.729Z,22.57
2019-02-26T19:33:42.177Z,28.10
2019-02-26T19:36:10.674Z,22.43
2019-02-26T19:38:36.975Z,25.40
2019-02-26T19:41:04.407Z,24.50
2019-02-26T19:43:31.865Z,32.37
2019-02-26T19:45:59.284Z,28.23
2019-02-26T19:48:30.446Z,26.60
2019-02-26T19:50:54.343Z,22.17
2019-02-26T19:53:21.839Z,40.03
2019-02-26T19:55:50.046Z,28.70
2019-02-26T19:58:17.440Z,28.50
2019-02-26T20:00:44.970Z,29.23
2019-02-26T20:03:12.426Z,24.53
2019-02-26T20:05:41.249Z,30.17
2019-02-26T20:08:07.378Z,28.03
2019-02-26T20:10:34.884Z,21.00
2019-02-26T20:13:04.031Z,20.50
2019-02-26T20:15:30.449Z,21.07
2019-02-26T20:17:57.260Z,23.27
2019-02-26T20:20:24.822Z,26.03
2019-02-26T20:22:52.263Z,48.13
2019-02-26T20:25:19.670Z,37.20
2019-02-26T20:27:47.278Z,31.63
2019-02-26T20:30:23.790Z,33.53
2019-02-26T20:32:51.220Z,26.83
2019-02-26T20:35:18.723Z,26.80
2019-02-26T20:37:46.158Z,24.53
2019-02-26T20:40:19.331Z,26.30
2019-02-26T20:42:46.763Z,22.47
2019-02-26T20:45:17.832Z,24.73
2019-02-26T20:47:41.649Z,28.07
2019-02-26T20:50:09.156Z,25.17
2019-02-26T20:52:36.573Z,26.80
2019-02-26T20:55:04.075Z,23.40
2019-02-26T20:57:31.528Z,26.57
2019-02-26T20:59:59.064Z,23.23
2019-02-26T21:02:26.479Z,23.93
2019-02-26T21:04:53.903Z,24.67
2019-02-26T21:07:21.837Z,23.20
2019-02-26T21:09:48.785Z,25.30
2019-02-26T21:12:16.245Z,24.77
2019-02-26T21:14:43.675Z,24.37
2019-02-26T21:17:11.131Z,25.10
2019-02-26T21:19:38.564Z,23.97
2019-02-26T21:22:06.015Z,23.63
2019-02-26T21:24:34.655Z,27.10
2019-02-26T21:27:00.869Z,28.37
2019-02-26T21:29:28.317Z,26.80
2019-02-26T21:31:55.739Z,21.87
2019-02-26T21:34:23.198Z,21.83
2019-02-26T21:36:50.620Z,21.07
2019-02-26T21:39:18.030Z,24.70
2019-02-26T21:41:45.487Z,23.43
2019-02-26T21:44:12.923Z,21.73
2019-02-26T21:46:40.361Z,23.77
2019-02-26T21:49:09.941Z,20.67
2019-02-26T21:51:35.204Z,26.77
2019-02-26T21:54:02.671Z,21.97
2019-02-26T21:56:30.117Z,23.53
2019-02-26T21:58:59.858Z,25.77
2019-02-26T22:01:24.973Z,23.67
2019-02-26T22:03:52.447Z,24.07
2019-02-26T22:06:19.883Z,22.97
2019-02-26T22:08:47.297Z,19.67
2019-02-26T22:11:15.789Z,23.07
2019-02-26T22:13:42.598Z,22.87
2019-02-26T22:16:10.003Z,25.73
2019-02-26T22:18:37.438Z,25.20
2019-02-26T22:21:04.887Z,26.63
2019-02-26T22:23:34.263Z,24.17
2019-02-26T22:25:59.730Z,22.03
2019-02-26T22:28:27.154Z,25.37
2019-02-26T22:30:55.985Z,23.47
2019-02-26T22:33:21.987Z,20.13
2019-02-26T22:35:49.397Z,22.07
2019-02-26T22:38:16.825Z,26.07
2019-02-26T22:40:44.255Z,25.37
2019-02-26T22:43:13.794Z,24.47
2019-02-26T22:45:39.121Z,26.57
2019-02-26T22:48:08.601Z,27.20
2019-02-26T22:50:33.949Z,24.90
2019-02-26T22:53:03.789Z,22.23
2019-02-26T22:55:28.804Z,27.43
2019-02-26T22:57:56.208Z,24.80
2019-02-26T23:00:53.998Z,24.57
2019-02-26T23:03:21.392Z,22.17
2019-02-26T23:05:48.848Z,23.23
2019-02-26T23:08:16.273Z,26.03
2019-02-26T23:10:43.704Z,21.37
2019-02-26T23:13:11.142Z,24.10
2019-02-26T23:15:38.570Z,22.13
2019-02-26T23:18:06.020Z,23.80
2019-02-26T23:20:33.431Z,28.13
2019-02-26T23:23:00.851Z,25.57
2019-02-26T23:25:28.260Z,26.67
2019-02-26T23:27:55.694Z,30.53
2019-02-26T23:30:24.961Z,28.10
2019-02-26T23:32:50.542Z,25.97
2019-02-26T23:35:17.945Z,26.20
2019-02-26T23:37:45.364Z,26.47
2019-02-26T23:40:14.722Z,28.03
2019-02-26T23:42:42.140Z,27.20
2019-02-26T23:45:09.555Z,26.87
2019-02-26T23:47:36.980Z,26.00
2019-02-26T23:50:04.403Z,27.27
2019-02-26T23:52:31.820Z,27.17
2019-02-26T23:54:59.225Z,28.80
2019-02-26T23:57:26.626Z,24.40
2019-02-26T23:59:54.060Z,27.47
